Time;durP1;ratioP1;P1;durP2;ratioP2;P2;SDS_P1;SDS_P2;PMS_P1;PMS_P2;Temp;Humidity;BMP_temperature;BMP_pressure;BME280_temperature;BME280_humidity;BME280_pressure;Samples;Min_cycle;Max_cycle;Signal;HPM_P1;HPM_P2
2023/11/13 00:00:15;;;;;;;15.88;7.75;;;;;;;10.46;100.00;99936.63;6127207;23;20013;-83
2023/11/13 00:02:41;;;;;;;15.52;8.35;;;;;;;10.35;100.00;99929.38;6128452;23;20451;-84
2023/11/13 00:05:07;;;;;;;15.70;10.55;;;;;;;10.17;100.00;99901.63;6127389;23;20027;-88
2023/11/13 00:07:33;;;;;;;20.10;11.38;;;;;;;10.15;100.00;99897.56;6127776;23;20084;-86
2023/11/13 00:09:58;;;;;;;16.17;11.27;;;;;;;10.22;100.00;99912.44;6127474;23;20044;-84
2023/11/13 00:12:24;;;;;;;13.98;8.38;;;;;;;10.27;100.00;99925.91;6127542;23;20403;-84
2023/11/13 00:14:50;;;;;;;14.07;8.75;;;;;;;10.36;100.00;99921.16;6127546;23;20012;-85
2023/11/13 00:17:15;;;;;;;15.73;9.52;;;;;;;10.37;100.00;99933.44;6127370;23;20009;-84
2023/11/13 00:19:43;;;;;;;17.77;9.82;;;;;;;10.31;100.00;99947.66;6128008;23;20016;-83
2023/11/13 00:22:09;;;;;;;15.52;8.60;;;;;;;10.29;100.00;99930.22;6127580;23;20006;-85
2023/11/13 00:24:34;;;;;;;12.82;7.13;;;;;;;10.26;100.00;99926.97;6127674;23;20062;-87
2023/11/13 00:26:59;;;;;;;13.48;6.65;;;;;;;10.33;100.00;99950.91;6127441;23;20005;-86
2023/11/13 00:29:25;;;;;;;12.57;6.35;;;;;;;10.22;100.00;99936.44;6127456;23;20096;-84
2023/11/13 00:31:51;;;;;;;12.00;8.02;;;;;;;10.20;100.00;99924.38;6127465;23;20028;-83
2023/11/13 00:34:16;;;;;;;14.63;6.53;;;;;;;10.47;100.00;99942.78;6127604;23;20394;-86
2023/11/13 00:36:42;;;;;;;11.40;6.90;;;;;;;10.25;100.00;99911.19;6127781;23;20005;-84
2023/11/13 00:39:10;;;;;;;11.50;6.20;;;;;;;10.50;100.00;99953.00;6127299;23;20013;-84
2023/11/13 00:41:37;;;;;;;11.00;6.43;;;;;;;10.25;100.00;99943.16;6127355;23;20104;-87
2023/11/13 00:44:03;;;;;;;11.63;6.28;;;;;;;9.91;100.00;99955.13;6126747;23;20092;-84
2023/11/13 00:46:28;;;;;;;9.63;5.13;;;;;;;9.99;100.00;99957.53;6127296;23;20091;-85
2023/11/13 00:48:54;;;;;;;8.60;4.75;;;;;;;10.42;100.00;99970.94;6127181;23;20111;-85
2023/11/13 00:51:19;;;;;;;10.40;5.50;;;;;;;10.31;100.00;99958.31;6127627;23;20432;-85
2023/11/13 00:53:46;;;;;;;8.85;4.75;;;;;;;10.10;100.00;99940.84;6127155;23;20151;-84
2023/11/13 00:56:11;;;;;;;10.77;5.15;;;;;;;10.22;100.00;99962.28;6153558;23;20020;-87
2023/11/13 00:58:37;;;;;;;9.45;5.15;;;;;;;10.34;100.00;99947.22;6127280;23;20013;-83
2023/11/13 01:01:06;;;;;;;9.65;4.82;;;;;;;10.36;100.00;99963.81;6127307;23;20001;-85
2023/11/13 01:03:33;;;;;;;9.55;5.05;;;;;;;10.25;100.00;99977.81;6126946;23;20078;-84
2023/11/13 01:05:59;;;;;;;9.05;4.85;;;;;;;10.26;100.00;99958.13;6126860;23;20009;-85
2023/11/13 01:08:25;;;;;;;9.77;4.80;;;;;;;10.30;100.00;99959.34;6127485;23;20016;-85
2023/11/13 01:10:50;;;;;;;12.10;5.60;;;;;;;10.39;100.00;99974.03;6127491;23;20037;-84
2023/11/13 01:13:16;;;;;;;10.85;5.35;;;;;;;10.43;100.00;99969.06;6127512;23;20006;-86
2023/11/13 01:15:42;;;;;;;8.43;5.32;;;;;;;10.34;100.00;99960.56;6127481;23;20378;-85
2023/11/13 01:18:08;;;;;;;9.77;5.35;;;;;;;10.27;100.00;99946.44;6126805;23;20088;-84
2023/11/13 01:20:34;;;;;;;11.10;6.15;;;;;;;10.36;100.00;99931.81;6153402;23;20085;-85
2023/11/13 01:22:59;;;;;;;10.45;5.97;;;;;;;10.31;100.00;99934.31;6153400;23;20010;-86
2023/11/13 01:25:25;;;;;;;9.48;5.03;;;;;;;10.11;100.00;99920.34;6126674;23;20505;-85
2023/11/13 01:27:50;;;;;;;10.52;5.70;;;;;;;10.18;100.00;99950.41;6127166;23;20329;-84
2023/11/13 01:30:15;;;;;;;9.60;5.65;;;;;;;10.26;100.00;99944.81;6127173;23;20005;-85
2023/11/13 01:32:41;;;;;;;11.55;5.20;;;;;;;9.99;100.00;99923.72;6126963;23;20013;-85
2023/11/13 01:35:07;;;;;;;8.15;4.63;;;;;;;10.06;100.00;99932.47;6126927;23;20824;-87
2023/11/13 01:37:32;;;;;;;9.60;5.47;;;;;;;9.88;100.00;99944.94;6127150;23;20006;-87
2023/11/13 01:39:58;;;;;;;7.45;4.63;;;;;;;9.61;100.00;99921.16;6127254;23;20056;-84
2023/11/13 01:42:23;;;;;;;7.88;4.90;;;;;;;9.71;100.00;99926.81;6153232;23;20104;-84
2023/11/13 01:44:50;;;;;;;10.35;5.63;;;;;;;9.68;100.00;99935.22;6127291;23;20009;-85
2023/11/13 01:47:16;;;;;;;11.07;4.95;;;;;;;9.96;100.00;99945.47;6127053;23;20359;-84
2023/11/13 01:49:43;;;;;;;9.65;4.65;;;;;;;9.82;100.00;99915.44;6126833;23;20024;-85
2023/11/13 01:52:10;;;;;;;6.88;4.40;;;;;;;9.75;100.00;99943.19;6127034;23;20060;-88
2023/11/13 01:54:36;;;;;;;8.75;4.85;;;;;;;9.70;100.00;99921.72;6127096;23;20020;-83
2023/11/13 01:57:05;;;;;;;8.50;4.53;;;;;;;9.87;100.00;99925.47;6127176;23;20001;-84
2023/11/13 01:59:33;;;;;;;9.02;5.18;;;;;;;10.30;100.00;99942.53;6126469;23;20005;-84
2023/11/13 02:02:02;;;;;;;9.93;5.45;;;;;;;10.37;100.00;99932.63;6125394;23;20013;-85
2023/11/13 02:04:27;;;;;;;8.30;4.82;;;;;;;10.33;100.00;99908.25;6125589;23;20029;-85
2023/11/13 02:06:53;;;;;;;9.10;5.00;;;;;;;10.50;100.00;99959.16;6126193;23;20009;-84
2023/11/13 02:09:20;;;;;;;9.40;5.10;;;;;;;10.48;100.00;99953.22;6126439;23;20436;-85
2023/11/13 02:11:46;;;;;;;9.05;5.03;;;;;;;10.40;100.00;99926.84;6127033;23;20464;-86
2023/11/13 02:14:12;;;;;;;8.88;4.85;;;;;;;10.25;100.00;99927.16;6126518;23;20440;-85
2023/11/13 02:16:38;;;;;;;9.48;5.60;;;;;;;10.39;100.00;99944.69;6126310;23;20068;-85
2023/11/13 02:19:03;;;;;;;8.70;4.85;;;;;;;10.28;100.00;99940.06;6126296;23;20002;-85
2023/11/13 02:21:29;;;;;;;9.70;5.78;;;;;;;10.21;100.00;99936.66;6127085;23;20005;-86
2023/11/13 02:23:55;;;;;;;11.05;5.55;;;;;;;10.11;100.00;99928.34;6126766;23;20017;-85
2023/11/13 02:26:23;;;;;;;11.50;6.03;;;;;;;10.30;100.00;99945.19;6126590;23;20466;-85
2023/11/13 02:28:49;;;;;;;10.55;4.68;;;;;;;10.19;100.00;99912.88;6152703;23;20080;-85
2023/11/13 02:31:15;;;;;;;8.98;4.93;;;;;;;10.36;100.00;99953.16;6127124;23;20009;-88
2023/11/13 02:33:40;;;;;;;8.98;4.97;;;;;;;10.27;100.00;99933.09;6126266;23;20096;-86
2023/11/13 02:36:06;;;;;;;8.57;4.80;;;;;;;10.50;100.00;99953.84;6152340;23;20067;-85
2023/11/13 02:38:33;;;;;;;10.02;5.18;;;;;;;10.49;100.00;99959.38;6126444;23;20017;-84
2023/11/13 02:40:59;;;;;;;8.50;4.65;;;;;;;10.35;100.00;99945.38;6126290;23;20076;-84
2023/11/13 02:43:24;;;;;;;10.15;5.90;;;;;;;10.40;100.00;99957.00;6126054;23;20554;-85
2023/11/13 02:45:50;;;;;;;9.05;5.82;;;;;;;10.16;100.00;99949.81;6126520;23;20016;-85
2023/11/13 02:48:16;;;;;;;7.55;4.50;;;;;;;9.81;100.00;99907.72;6126206;23;20084;-86
2023/11/13 02:50:41;;;;;;;11.15;4.97;;;;;;;9.70;100.00;99917.19;6126011;23;20092;-84
2023/11/13 02:53:07;;;;;;;9.82;5.20;;;;;;;9.68;100.00;99934.41;6126115;23;20055;-85
2023/11/13 02:55:32;;;;;;;9.30;4.32;;;;;;;9.61;100.00;99924.63;6126507;23;20044;-86
2023/11/13 02:57:58;;;;;;;7.28;4.47;;;;;;;9.95;100.00;99933.19;6126675;23;20002;-84
2023/11/13 03:00:23;;;;;;;8.90;5.03;;;;;;;10.10;100.00;99926.72;6126607;23;20006;-85
2023/11/13 03:02:49;;;;;;;8.57;4.97;;;;;;;10.22;100.00;99924.97;6126437;23;20048;-86
2023/11/13 03:05:16;;;;;;;10.15;4.82;;;;;;;10.17;100.00;99906.13;6126150;23;20144;-86
2023/11/13 03:07:43;;;;;;;9.23;5.68;;;;;;;10.27;100.00;99911.78;6126801;23;20005;-86
2023/11/13 03:10:09;;;;;;;8.13;5.35;;;;;;;10.13;100.00;99911.09;6125899;23;20012;-85
2023/11/13 03:12:37;;;;;;;9.80;5.82;;;;;;;10.57;100.00;99943.09;6126637;23;20020;-85
2023/11/13 03:15:03;;;;;;;;;;;;;;;10.48;100.00;99947.06;6126762;23;20084;-84
2023/11/13 03:17:29;;;;;;;9.10;4.93;;;;;;;10.40;100.00;99938.34;6126824;23;19928;-84
2023/11/13 03:19:54;;;;;;;9.15;5.30;;;;;;;10.47;100.00;99934.78;6125809;23;20001;-85
2023/11/13 03:22:19;;;;;;;10.40;5.35;;;;;;;10.56;100.00;99946.78;6126496;23;20009;-85
2023/11/13 03:24:46;;;;;;;10.10;5.40;;;;;;;10.48;100.00;99944.41;6126185;23;20017;-84
2023/11/13 03:27:12;;;;;;;8.52;4.88;;;;;;;10.62;100.00;99956.56;6126398;23;20371;-87
2023/11/13 03:29:38;;;;;;;11.27;6.15;;;;;;;10.65;100.00;99964.94;6126647;23;20436;-84
2023/11/13 03:32:04;;;;;;;9.38;6.72;;;;;;;10.57;100.00;99954.56;6126484;23;20455;-85
2023/11/13 03:34:30;;;;;;;10.20;5.90;;;;;;;10.58;100.00;99944.72;6126381;23;20033;-86
2023/11/13 03:36:55;;;;;;;8.55;6.15;;;;;;;10.42;100.00;99941.59;6125908;23;20040;-84
2023/11/13 03:39:21;;;;;;;9.25;6.07;;;;;;;10.53;100.00;99941.91;6125875;23;20020;-84
2023/11/13 03:41:46;;;;;;;8.63;5.45;;;;;;;10.54;100.00;99957.69;6126109;23;20020;-85
2023/11/13 03:44:12;;;;;;;9.13;5.75;;;;;;;10.44;100.00;99939.53;6126180;23;20014;-84
2023/11/13 03:46:37;;;;;;;9.30;5.68;;;;;;;10.60;100.00;99969.31;6126427;23;20016;-84
2023/11/13 03:49:03;;;;;;;8.38;5.30;;;;;;;10.26;100.00;99936.81;6125903;23;20078;-84
2023/11/13 03:51:29;;;;;;;9.02;5.53;;;;;;;10.20;100.00;99954.50;6126069;23;20005;-84
2023/11/13 03:53:55;;;;;;;9.93;5.22;;;;;;;10.23;100.00;99946.03;6126118;23;20116;-84
2023/11/13 03:56:22;;;;;;;11.90;6.40;;;;;;;10.43;100.00;99958.41;6126069;23;20020;-85
2023/11/13 03:58:48;;;;;;;8.60;5.07;;;;;;;10.24;100.00;99923.69;6126035;23;20009;-85
2023/11/13 04:01:15;;;;;;;8.43;5.30;;;;;;;10.58;100.00;99966.88;6126420;23;20470;-85
2023/11/13 04:03:40;;;;;;;11.20;5.22;;;;;;;10.39;100.00;99936.69;6152340;23;20337;-84
2023/11/13 04:06:06;;;;;;;8.57;5.47;;;;;;;10.53;100.00;99944.56;6126286;23;20013;-84
2023/11/13 04:08:32;;;;;;;12.25;5.60;;;;;;;10.52;100.00;99951.75;6126421;23;20017;-83
2023/11/13 04:10:57;;;;;;;9.65;6.20;;;;;;;10.41;100.00;99965.81;6126124;23;20461;-84
2023/11/13 04:13:26;;;;;;;12.20;6.30;;;;;;;10.43;100.00;99974.41;6126454;23;20013;-82
2023/11/13 04:15:52;;;;;;;9.77;5.95;;;;;;;10.23;100.00;99954.03;6125935;23;20006;-85
2023/11/13 04:18:17;;;;;;;9.60;5.85;;;;;;;10.22;100.00;99971.06;6127881;23;20015;-85
2023/11/13 04:20:44;;;;;;;12.27;6.45;;;;;;;10.14;100.00;99949.22;6127601;23;20073;-84
2023/11/13 04:23:09;;;;;;;10.27;6.25;;;;;;;10.13;100.00;99952.91;6129279;23;20016;-85
2023/11/13 04:25:35;;;;;;;9.80;6.18;;;;;;;10.25;100.00;99980.47;6135897;23;20006;-84
2023/11/13 04:28:01;;;;;;;10.65;7.20;;;;;;;10.31;100.00;99952.97;6135836;23;20084;-85
2023/11/13 04:30:27;;;;;;;12.48;6.93;;;;;;;10.48;100.00;99974.53;6136441;23;20009;-84
2023/11/13 04:32:53;;;;;;;11.77;7.47;;;;;;;10.28;100.00;99940.06;6135548;23;20018;-85
2023/11/13 04:35:19;;;;;;;11.98;6.82;;;;;;;10.20;100.00;99937.69;6136135;23;20013;-85
2023/11/13 04:37:44;;;;;;;10.38;7.15;;;;;;;10.12;100.00;99952.09;6136209;23;20029;-85
2023/11/13 04:40:11;;;;;;;10.50;6.97;;;;;;;10.22;100.00;99956.94;6135592;23;20017;-85
2023/11/13 04:42:37;;;;;;;11.68;6.72;;;;;;;10.20;100.00;99954.50;6135231;23;20458;-87
2023/11/13 04:45:03;;;;;;;10.43;7.10;;;;;;;10.57;100.00;99965.22;6135490;23;20002;-87
2023/11/13 04:47:30;;;;;;;11.13;6.50;;;;;;;10.35;100.00;99937.38;6137142;23;20013;-84
2023/11/13 04:49:55;;;;;;;10.80;7.00;;;;;;;10.25;100.00;99946.63;6126060;23;20049;-87
2023/11/13 04:52:21;;;;;;;10.38;6.15;;;;;;;10.53;100.00;99984.56;6127035;23;20014;-84
2023/11/13 04:54:46;;;;;;;10.02;6.88;;;;;;;10.16;100.00;99969.28;6127206;23;20006;-84
2023/11/13 04:57:12;;;;;;;12.15;6.93;;;;;;;10.30;100.00;99972.69;6126371;23;20006;-85
2023/11/13 04:59:38;;;;;;;12.10;7.43;;;;;;;10.33;100.00;99985.56;6126819;23;20363;-85
2023/11/13 05:02:04;;;;;;;12.60;7.55;;;;;;;10.14;100.00;99974.00;6126705;23;20009;-84
2023/11/13 05:04:30;;;;;;;15.30;8.75;;;;;;;10.35;100.00;99998.69;6126821;23;20005;-83
2023/11/13 05:06:56;;;;;;;11.48;7.60;;;;;;;10.44;100.00;100016.00;6126155;23;20013;-84
2023/11/13 05:09:23;;;;;;;12.43;8.18;;;;;;;10.24;100.00;100018.84;6125443;23;20010;-85
2023/11/13 05:11:49;;;;;;;11.02;7.63;;;;;;;9.83;100.00;99990.88;6126758;23;20090;-85
2023/11/13 05:14:15;;;;;;;11.77;8.45;;;;;;;9.96;100.00;100006.75;6124538;23;20081;-85
2023/11/13 05:16:40;;;;;;;12.73;9.13;;;;;;;10.03;100.00;100038.66;6123482;23;20399;-84
2023/11/13 05:19:06;;;;;;;14.00;9.40;;;;;;;10.17;100.00;100040.19;6123294;23;20029;-85
2023/11/13 05:21:32;;;;;;;12.73;8.43;;;;;;;9.96;100.00;100017.41;6122934;23;20021;-85
2023/11/13 05:23:58;;;;;;;14.02;8.18;;;;;;;10.04;100.00;100013.66;6122694;23;20013;-86
2023/11/13 05:26:23;;;;;;;13.98;7.65;;;;;;;9.94;100.00;100023.97;6122755;23;20009;-84
2023/11/13 05:28:49;;;;;;;14.85;8.45;;;;;;;9.72;100.00;100020.84;6122162;23;20006;-85
2023/11/13 05:31:14;;;;;;;16.05;10.23;;;;;;;9.99;100.00;100030.31;6122720;23;20039;-83
2023/11/13 05:33:40;;;;;;;14.57;10.02;;;;;;;10.25;100.00;100045.25;6122292;23;20010;-83
2023/11/13 05:36:06;;;;;;;16.30;9.50;;;;;;;10.06;100.00;100023.06;6122298;23;20072;-86
2023/11/13 05:38:32;;;;;;;16.10;10.07;;;;;;;9.99;100.00;100038.28;6121887;23;20002;-84
2023/11/13 05:40:57;;;;;;;13.50;8.77;;;;;;;9.89;100.00;100037.09;6122353;23;20017;-84
2023/11/13 05:43:23;;;;;;;14.77;8.30;;;;;;;9.89;100.00;100045.94;6122077;23;20010;-83
2023/11/13 05:45:49;;;;;;;11.65;7.10;;;;;;;10.16;100.00;100059.09;6122452;23;20338;-85
2023/11/13 05:48:14;;;;;;;12.95;7.95;;;;;;;10.19;100.00;100059.44;6121750;23;20446;-86
2023/11/13 05:50:40;;;;;;;21.10;8.48;;;;;;;10.19;100.00;100072.78;6121687;23;20013;-83
2023/11/13 05:53:05;;;;;;;21.77;9.18;;;;;;;9.95;100.00;100069.06;6121981;23;20037;-85
2023/11/13 05:55:32;;;;;;;13.25;8.93;;;;;;;10.06;100.00;100084.34;6121735;23;20018;-84
2023/11/13 05:57:57;;;;;;;16.33;8.55;;;;;;;9.98;100.00;100057.16;6121964;23;20041;-86
2023/11/13 06:00:23;;;;;;;17.20;9.07;;;;;;;10.02;100.00;100069.81;6121520;23;20013;-83
2023/11/13 06:02:49;;;;;;;15.43;9.43;;;;;;;10.26;100.00;100081.53;6121684;23;20006;-86
2023/11/13 06:05:16;;;;;;;12.45;7.78;;;;;;;10.06;100.00;100079.00;6121614;23;20080;-85
2023/11/13 06:07:42;;;;;;;12.90;8.10;;;;;;;10.23;100.00;100078.50;6121462;23;20016;-85
2023/11/13 06:10:10;;;;;;;12.93;6.95;;;;;;;10.30;100.00;100071.31;6121934;23;20257;-87
2023/11/13 06:12:39;;;;;;;13.07;8.00;;;;;;;10.51;100.00;100096.78;6122061;23;20006;-87
2023/11/13 06:15:10;;;;;;;12.27;7.57;;;;;;;10.50;100.00;100097.81;6122069;23;20056;-90
2023/11/13 06:17:36;;;;;;;15.00;6.85;;;;;;;10.17;100.00;100066.84;6122250;23;20089;-86
2023/11/13 06:20:02;;;;;;;11.57;6.28;;;;;;;10.26;100.00;100123.38;6122032;23;20005;-86
2023/11/13 06:22:28;;;;;;;9.98;6.43;;;;;;;10.31;100.00;100109.44;6121901;23;20021;-86
2023/11/13 06:24:54;;;;;;;10.50;6.65;;;;;;;10.26;100.00;100118.06;6122467;23;20016;-87
2023/11/13 06:27:20;;;;;;;10.43;6.63;;;;;;;10.34;100.00;100108.97;6121404;23;20021;-87
2023/11/13 06:29:45;;;;;;;10.80;6.40;;;;;;;10.58;100.00;100115.38;6121614;23;20006;-87
2023/11/13 06:32:11;;;;;;;24.48;15.32;;;;;;;10.30;100.00;100108.63;6121725;23;20010;-88
2023/11/13 06:34:36;;;;;;;18.45;12.98;;;;;;;10.47;100.00;100108.09;6121706;23;20392;-86
2023/11/13 06:37:02;;;;;;;28.88;17.98;;;;;;;10.39;100.00;100087.84;6121431;23;20025;-86
2023/11/13 06:39:27;;;;;;;36.30;25.40;;;;;;;10.18;100.00;100062.34;6121283;23;20010;-85
2023/11/13 06:41:53;;;;;;;18.45;12.52;;;;;;;10.29;100.00;100112.28;6120871;23;20014;-85
2023/11/13 06:44:19;;;;;;;17.92;10.40;;;;;;;10.24;100.00;100094.28;6120896;23;20514;-84
2023/11/13 06:46:45;;;;;;;19.33;12.52;;;;;;;10.22;100.00;100072.34;6121055;23;20009;-86
2023/11/13 06:49:11;;;;;;;16.17;10.52;;;;;;;10.82;100.00;100119.88;6120526;23;20040;-85
2023/11/13 06:51:36;;;;;;;12.90;9.20;;;;;;;10.48;100.00;100109.72;6121248;23;20404;-84
2023/11/13 06:54:03;;;;;;;18.42;12.85;;;;;;;10.30;100.00;100107.78;6120763;23;20010;-86
2023/11/13 06:56:32;;;;;;;42.08;35.60;;;;;;;10.81;100.00;100110.25;6122943;23;20089;-85
2023/11/13 06:58:58;;;;;;;49.47;38.42;;;;;;;10.77;100.00;100111.75;6120995;23;20040;-85
2023/11/13 07:01:23;;;;;;;35.60;30.13;;;;;;;10.75;100.00;100105.81;6121161;23;20092;-88
2023/11/13 07:03:49;;;;;;;29.15;23.65;;;;;;;10.86;100.00;100113.06;6121034;23;20005;-86
2023/11/13 07:06:14;;;;;;;26.20;20.60;;;;;;;11.12;100.00;100113.06;6120957;23;20002;-85
2023/11/13 07:08:40;;;;;;;21.08;14.77;;;;;;;11.12;100.00;100129.06;6121083;23;20005;-85
2023/11/13 07:11:06;;;;;;;18.20;13.05;;;;;;;11.15;100.00;100132.09;6120599;23;20009;-85
2023/11/13 07:13:34;;;;;;;18.63;11.98;;;;;;;11.07;100.00;100116.38;6121364;23;20021;-85
2023/11/13 07:16:00;;;;;;;15.75;11.15;;;;;;;11.24;100.00;100157.47;6121013;23;20002;-87
2023/11/13 07:18:25;;;;;;;18.10;11.93;;;;;;;11.36;100.00;100148.72;6121156;23;20017;-85
2023/11/13 07:20:52;;;;;;;17.00;11.38;;;;;;;11.36;100.00;100133.53;6120918;23;20045;-86
2023/11/13 07:23:18;;;;;;;14.38;9.70;;;;;;;11.63;100.00;100160.75;6120607;23;20009;-87
2023/11/13 07:25:47;;;;;;;11.02;8.27;;;;;;;11.74;100.00;100155.69;6121125;23;20006;-84
2023/11/13 07:28:15;;;;;;;12.38;6.95;;;;;;;11.38;100.00;100151.97;6120737;23;20471;-85
2023/11/13 07:30:41;;;;;;;11.63;7.53;;;;;;;11.40;100.00;100116.03;6120952;23;20009;-85
2023/11/13 07:33:06;;;;;;;13.38;8.18;;;;;;;11.68;100.00;100145.91;6120952;23;20002;-85
2023/11/13 07:35:32;;;;;;;11.02;6.72;;;;;;;11.78;100.00;100146.19;6120789;23;20065;-84
2023/11/13 07:37:57;;;;;;;10.73;6.57;;;;;;;11.40;100.00;100132.06;6120455;23;20016;-84
2023/11/13 07:40:25;;;;;;;10.00;6.25;;;;;;;11.55;100.00;100145.03;6120152;23;20012;-86
2023/11/13 07:42:51;;;;;;;10.40;6.63;;;;;;;11.56;100.00;100143.16;6120252;23;20412;-85
2023/11/13 07:45:17;;;;;;;11.82;6.47;;;;;;;11.80;100.00;100141.44;6120760;23;20006;-84
2023/11/13 07:47:43;;;;;;;11.05;6.50;;;;;;;11.66;100.00;100144.25;6121988;23;20010;-85
2023/11/13 07:50:12;;;;;;;10.57;6.70;;;;;;;11.72;100.00;100152.44;6142965;23;20013;-84
2023/11/13 07:52:42;;;;;;;13.02;7.68;;;;;;;11.83;100.00;100133.78;6126840;23;20016;-84
2023/11/13 07:55:12;;;;;;;18.98;10.02;;;;;;;12.19;100.00;100123.25;6127378;23;20140;-85
2023/11/13 07:57:38;;;;;;;16.33;9.55;;;;;;;12.43;100.00;100150.88;6127280;23;20482;-85
2023/11/13 08:00:05;;;;;;;14.43;8.88;;;;;;;12.38;100.00;100116.81;6127345;23;20005;-85
2023/11/13 08:02:35;;;;;;;14.15;7.43;;;;;;;12.68;100.00;100134.66;6127532;23;20469;-84
2023/11/13 08:05:01;;;;;;;13.20;7.57;;;;;;;12.41;100.00;100119.03;6127078;23;20065;-84
2023/11/13 08:07:26;;;;;;;10.98;6.35;;;;;;;12.20;100.00;100122.22;6127399;23;20100;-87
2023/11/13 08:09:52;;;;;;;12.50;6.70;;;;;;;12.70;100.00;100105.78;6127078;23;20410;-86
2023/11/13 08:12:18;;;;;;;15.48;8.18;;;;;;;12.52;100.00;100103.22;6127501;23;20010;-85
2023/11/13 08:14:43;;;;;;;14.70;7.43;;;;;;;12.63;100.00;100097.88;6127238;23;20048;-86
2023/11/13 08:17:09;;;;;;;9.38;4.80;;;;;;;12.61;100.00;100120.56;6127574;23;20462;-84
2023/11/13 08:19:34;;;;;;;9.82;5.53;;;;;;;12.86;100.00;100105.09;6127137;23;20132;-85
2023/11/13 08:22:00;;;;;;;13.85;7.18;;;;;;;13.48;100.00;100100.28;6127125;23;20006;-86
2023/11/13 08:24:26;;;;;;;8.32;4.05;;;;;;;12.83;99.25;100110.94;6127290;23;20013;-84
2023/11/13 08:26:52;;;;;;;6.82;3.90;;;;;;;13.12;100.00;100108.38;6127379;23;20092;-84
2023/11/13 08:29:18;;;;;;;7.82;4.30;;;;;;;13.03;99.95;100110.56;6126864;23;20016;-84
2023/11/13 08:31:44;;;;;;;9.13;3.88;;;;;;;12.85;98.98;100102.66;6126906;23;20096;-85
2023/11/13 08:34:10;;;;;;;7.68;3.38;;;;;;;13.23;99.81;100126.25;6127423;23;20006;-85
2023/11/13 08:36:35;;;;;;;5.72;3.05;;;;;;;13.21;98.32;100109.63;6127167;23;20009;-86
2023/11/13 08:39:01;;;;;;;8.35;3.20;;;;;;;13.30;96.14;100120.00;6126953;23;20487;-84
2023/11/13 08:41:28;;;;;;;6.80;3.50;;;;;;;13.44;95.04;100121.38;6126564;23;20043;-83
2023/11/13 08:43:55;;;;;;;6.10;3.05;;;;;;;13.66;96.00;100119.69;6126811;23;20013;-84
2023/11/13 08:46:21;;;;;;;7.45;3.47;;;;;;;13.85;92.02;100101.56;6127018;23;20014;-86
2023/11/13 08:48:47;;;;;;;6.40;3.50;;;;;;;13.52;95.50;100122.88;6126610;23;20014;-84
2023/11/13 08:51:14;;;;;;;7.70;4.10;;;;;;;13.85;96.35;100106.94;6126742;23;20432;-84
2023/11/13 08:53:42;;;;;;;8.13;3.60;;;;;;;14.19;92.56;100116.91;6153192;23;20006;-85
2023/11/13 08:56:15;;;;;;;6.45;3.38;;;;;;;14.04;91.54;100123.63;6125882;23;20079;-81
2023/11/13 08:58:43;;;;;;;7.10;3.80;;;;;;;13.58;93.17;100128.09;6151865;23;20016;-80
2023/11/13 09:01:09;;;;;;;8.82;4.88;;;;;;;13.52;98.47;100121.00;6151469;23;20037;-80
2023/11/13 09:03:35;;;;;;;8.73;4.72;;;;;;;13.35;96.89;100106.72;6150591;23;20392;-79
2023/11/13 09:06:08;;;;;;;7.20;4.68;;;;;;;13.80;94.00;100114.06;6151180;23;20080;-82
2023/11/13 09:08:35;;;;;;;8.90;5.22;;;;;;;13.73;94.59;100070.50;6150903;23;20080;-80
2023/11/13 09:11:01;;;;;;;8.55;4.97;;;;;;;14.28;89.87;100110.09;6151255;23;20056;-81
2023/11/13 09:13:27;;;;;;;8.02;4.70;;;;;;;14.93;84.01;100113.28;6125551;23;20005;-81
2023/11/13 09:15:52;;;;;;;8.38;5.22;;;;;;;14.54;88.38;100115.88;6151778;23;20089;-84
2023/11/13 09:18:22;;;;;;;9.23;4.95;;;;;;;14.80;88.59;100144.78;6126016;23;20016;-81
2023/11/13 09:20:48;;;;;;;7.65;4.22;;;;;;;14.77;82.35;100117.63;6151663;23;20072;-81
2023/11/13 09:23:15;;;;;;;8.00;4.22;;;;;;;14.96;82.51;100120.88;6151710;23;20080;-80
2023/11/13 09:25:40;;;;;;;7.75;4.32;;;;;;;15.27;79.71;100139.03;6125579;23;20006;-81
2023/11/13 09:28:07;;;;;;;8.05;4.75;;;;;;;15.45;80.58;100143.28;6152013;23;20096;-81
2023/11/13 09:30:33;;;;;;;7.07;4.07;;;;;;;15.34;80.49;100116.53;6151169;23;20013;-81
2023/11/13 09:32:59;;;;;;;7.38;4.32;;;;;;;14.77;84.90;100121.13;6151588;23;20008;-82
2023/11/13 09:35:26;;;;;;;;;;;;;;;15.27;86.77;100114.84;6152131;23;20013;-83
2023/11/13 09:37:53;;;;;;;7.55;4.45;;;;;;;15.26;82.48;100110.53;6151254;23;20319;-82
2023/11/13 09:40:39;;;;;;;8.70;4.47;;;;;;;15.27;83.01;100111.34;6151295;23;20021;-80
2023/11/13 09:43:18;;;;;;;6.93;3.60;;;;;;;15.07;84.86;100101.13;6124933;23;20013;-81
2023/11/13 09:45:51;;;;;;;8.68;3.92;;;;;;;15.19;81.29;100104.53;6151361;23;20009;-81
2023/11/13 09:48:29;;;;;;;6.25;4.18;;;;;;;15.29;83.88;100076.19;6151581;23;20033;-82
2023/11/13 09:50:57;;;;;;;;;;;;;;;15.59;82.57;100078.41;6151770;23;20018;-82
2023/11/13 09:53:28;;;;;;;8.93;4.10;;;;;;;15.26;80.79;100051.44;6151437;23;19952;-83
2023/11/13 09:55:55;;;;;;;8.07;3.78;;;;;;;15.56;81.65;100068.97;6125210;23;20061;-80
2023/11/13 09:58:21;;;;;;;8.40;4.05;;;;;;;15.65;82.10;100075.53;6125428;23;20013;-79
2023/11/13 10:00:46;;;;;;;8.77;4.60;;;;;;;15.68;80.35;100037.38;6150658;23;20009;-82
2023/11/13 10:03:15;;;;;;;6.05;3.20;;;;;;;15.27;79.47;100053.06;6124936;23;20110;-81
2023/11/13 10:05:42;;;;;;;6.72;3.60;;;;;;;15.32;84.80;100056.84;6124930;23;20020;-80
2023/11/13 10:08:08;;;;;;;8.50;3.90;;;;;;;15.43;79.85;100047.88;6151307;23;20032;-80
2023/11/13 10:10:35;;;;;;;5.88;3.70;;;;;;;15.74;80.67;100040.16;6150822;23;20448;-81
2023/11/13 10:13:04;;;;;;;5.97;3.85;;;;;;;16.03;78.72;100049.56;6150172;23;20359;-82
2023/11/13 10:15:36;;;;;;;6.47;3.67;;;;;;;15.66;80.33;100046.78;6125091;23;20126;-80
2023/11/13 10:18:01;;;;;;;8.40;4.70;;;;;;;15.99;80.49;100061.91;6151036;23;20009;-81
2023/11/13 10:20:28;;;;;;;6.55;3.90;;;;;;;15.83;78.33;100057.44;6151241;23;20009;-80
2023/11/13 10:23:06;;;;;;;7.47;3.70;;;;;;;15.76;80.15;100046.09;6124204;23;20016;-82
2023/11/13 10:25:52;;;;;;;7.53;3.63;;;;;;;16.18;76.58;100058.84;6151071;23;20013;-81
2023/11/13 10:28:19;;;;;;;7.97;3.20;;;;;;;16.05;73.91;100060.88;6124576;23;20010;-82
2023/11/13 10:30:51;;;;;;;6.93;3.33;;;;;;;16.81;69.42;100059.06;6124202;23;20351;-82
2023/11/13 10:33:19;;;;;;;9.63;4.22;;;;;;;17.43;68.62;100050.22;6124464;23;20345;-82
2023/11/13 10:35:48;;;;;;;6.18;3.63;;;;;;;17.59;67.08;100039.47;6150578;23;20013;-81
2023/11/13 10:38:14;;;;;;;5.95;3.22;;;;;;;17.21;69.26;100045.00;6150869;23;20008;-82
2023/11/13 10:40:53;;;;;;;8.68;3.92;;;;;;;17.01;70.41;100063.78;6124298;23;20006;-81
2023/11/13 10:43:40;;;;;;;6.85;3.63;;;;;;;17.12;71.06;100057.38;6149842;23;20452;-82
2023/11/13 10:46:06;;;;;;;7.30;3.83;;;;;;;16.62;71.64;100040.63;6150798;23;20088;-82
2023/11/13 10:48:37;;;;;;;6.75;3.58;;;;;;;16.86;72.41;100068.00;6151008;23;20092;-81
2023/11/13 10:51:05;;;;;;;6.63;3.63;;;;;;;16.98;67.19;100064.28;6150340;23;20018;-81
2023/11/13 10:53:42;;;;;;;6.25;3.20;;;;;;;17.66;64.95;100045.41;6149688;23;20080;-83
2023/11/13 10:56:13;;;;;;;6.50;3.50;;;;;;;17.88;65.25;100047.94;6124100;23;20037;-82
2023/11/13 10:58:40;;;;;;;4.75;2.75;;;;;;;18.43;59.06;100081.41;6150405;23;20009;-83
2023/11/13 11:01:16;;;;;;;6.93;3.10;;;;;;;17.58;64.43;100064.81;6124573;23;20005;-84
2023/11/13 11:03:47;;;;;;;5.82;2.92;;;;;;;17.39;64.81;100078.78;6124698;23;20410;-84
2023/11/13 11:06:20;;;;;;;5.85;2.92;;;;;;;17.53;65.69;100064.78;6124376;23;20010;-84
2023/11/13 11:08:46;;;;;;;3.83;2.13;;;;;;;18.15;55.53;100073.84;6124429;23;20005;-83
2023/11/13 11:11:13;;;;;;;5.47;2.50;;;;;;;18.46;55.79;100051.16;6124122;23;20001;-83
2023/11/13 11:13:48;;;;;;;5.40;2.67;;;;;;;18.35;59.93;100057.66;6150117;23;20008;-82
2023/11/13 11:16:32;;;;;;;4.90;2.60;;;;;;;18.58;57.87;100077.09;6150733;23;20006;-83